Nearby METAR Reports

 

KMTN - Baltimore/Martin, Maryland, USA
Distance from station: SSE 8mi, 13km
Updated: Wed, 26-Nov-2014 11:50am EST

 Wind from NW
Wind: NW 5 mph , 7 km/h
2014/11/26 16:50 KMTN 261650Z 32004KT 3/4 SM -TSSN OVC006 01/01 A3004
KDMH - Baltimore/Dwntwn, Maryland, USA
Distance from station: SW 12mi, 19km
Updated: Wed, 26-Nov-2014 10:54am EST

 
Temperature: 36°F , 2°C
Dew Point: 34°F , 1°C
Humidity: 93%
Barometer: 30.05 inHg , 1017.6 hPa
2014/11/26 15:54 KDMH 261554Z AUTO 02/01 A3005 RMK AO1 SLP175 P0012 T00220011
 
KBWI - Balto/Wash Intl, Maryland, USA
Distance from station: SSW 20mi, 33km
Updated: Wed, 26-Nov-2014 11:54am EST
Snow, Fog, Overcast
Snow, Fog, Overcast
 Wind from N
Wind: N 7 mph , 11 km/h
Temperature: 34°F , 1°C
Wind Chill: 28°F , -2°C
Dew Point: 30°F , -1°C
Humidity: 87%
Barometer: 29.98 inHg , 1015.2 hPa
Summary: Snow, Fog
Clouds: Overcast
Visibility: 1/2 mile , 2 km
Cloud details: Overcast 600 ft
2014/11/26 16:54 KBWI 261654Z 01006KT 1/2SM R10/3000V4500FT SN FG VV006 01/M01 A2998 RMK AO2 PRESFR SLP151 P0020 T00061006
KDMW - Carroll Cnty, Maryland, USA
Distance from station: WNW 30mi, 48km
Updated: Wed, 26-Nov-2014 11:50am EST
Light snow, Overcast
Light snow, Overcast
 Wind from NE
Wind: NE 6 mph , 9 km/h
Temperature: 34°F , 1°C
Wind Chill: 29°F , -2°C
Dew Point: 32°F , 0°C
Humidity: 93%
Barometer: 29.99 inHg , 1015.6 hPa
Summary: Light Snow
Clouds: Overcast
Visibility: 1 mile , 2 km
Cloud details: Overcast 500 ft
2014/11/26 16:50 KDMW 261650Z AUTO 04005KT 1SM -SN OVC005 01/00 A2999 RMK AO2 P0002
 
KNAK - Annapolis/Naval, Maryland, USA
Distance from station: S 30mi, 48km
Updated: Wed, 26-Nov-2014 11:18am EST
Light snow, Mist, Overcast
Light snow, Mist, Overcast
 Wind from N
Wind: N 12 mph , 19 km/h
Temperature: 36°F , 2°C
Wind Chill: 28°F , -2°C
Dew Point: 34°F , 1°C
Humidity: 93%
Barometer: 30.03 inHg , 1016.9 hPa
Summary: Light snow, Mist
Clouds: Overcast
Visibility: 2 1/2 miles , 2 km
Cloud details: Mostly cloudy 1000 ft
Overcast 1500 ft
2014/11/26 16:18 KNAK 261618Z AUTO 01010KT 2 1/2SM -SN BR BKN010 OVC015 02/01 A3003 RMK AO2 RAE16SNB16 P0007 T00220011
KW29 - Stevensville, Maryland, USA
Distance from station: SSE 31mi, 50km
Updated: Wed, 26-Nov-2014 11:49am EST
Rain
Rain
 Wind from N
Wind: N 10 mph , 17 km/h, Gust: 16 mph , 26 km/h
Temperature: 34°F , 1°C
Wind Chill: 26°F , -3°C
Dew Point: 34°F , 1°C
Humidity: 100%
Barometer: 29.99 inHg , 1015.6 hPa
Summary: Rain
Visibility: 4 miles , 6 km
2014/11/26 16:49 KW29 261649Z AUTO 01009G14KT 4SM RA 01/01 A2999 RMK AO1
 
KCGS - College Park, Maryland, USA
Distance from station: SW 38mi, 61km
Updated: Wed, 26-Nov-2014 11:45am EST
Overcast
Overcast
 Wind from calm
Wind: Calm
Temperature: 34°F , 1°C
Dew Point: 32°F , 0°C
Humidity: 93%
Barometer: 29.99 inHg , 1015.6 hPa
Clouds: Overcast
Visibility: 3/4 mile , 5 km
Cloud details: Overcast 600 ft
2014/11/26 16:45 KCGS 261645Z AUTO 00000KT 3/4SM OVC006 01/00 A2999 RMK AO1
KGAI - Gaithersburg, Maryland, USA
Distance from station: WSW 40mi, 65km
Updated: Wed, 26-Nov-2014 11:55am EST
Overcast
Overcast
 Wind from NNE
Wind: NNE 7 mph , 11 km/h
Temperature: 34°F , 1°C
Wind Chill: 28°F , -2°C
Dew Point: 30°F , -1°C
Humidity: 87%
Barometer: 30.00 inHg , 1015.9 hPa
Clouds: Overcast
Visibility: 1 3/4 miles , 5 km
Cloud details: Overcast 400 ft
2014/11/26 16:55 KGAI 261655Z 03006KT 1 3/4SM OVC004 01/M01 A3000 RMK AO1
 
KTHV - York, Pennsylvania, USA
Distance from station: NNW 40mi, 65km
Updated: Wed, 26-Nov-2014 11:53am EST
Snow, Fog, Overcast
Snow, Fog, Overcast
 Wind from NNE
Wind: NNE 6 mph , 9 km/h
Temperature: 34°F , 1°C
Wind Chill: 29°F , -2°C
Dew Point: 32°F , 0°C
Humidity: 93%
Barometer: 30.01 inHg , 1016.3 hPa
Summary: Snow, Fog
Clouds: Overcast
Visibility: 1/2 mile , 2 km
Cloud details: Mostly cloudy 300 ft
Overcast 800 ft
2014/11/26 16:53 KTHV 261653Z AUTO 03005KT 1/2SM SN FG BKN003 OVC008 01/00 A3001 RMK AO2 PRESFR SLP169 P0003 T00060000
KFDK - Frederick, Maryland, USA
Distance from station: W 47mi, 75km
Updated: Wed, 26-Nov-2014 11:45am EST
Light snow, Overcast
Light snow, Overcast
 Wind from NNE
Wind: NNE 8 mph , 13 km/h
Temperature: 36°F , 2°C
Wind Chill: 30°F , -1°C
Dew Point: 30°F , -1°C
Humidity: 81%
Barometer: 30.04 inHg , 1017.3 hPa
Summary: Light Snow
Clouds: Overcast
Visibility: 1 mile , 2 km
Cloud details: Overcast 300 ft
2014/11/26 16:45 KFDK 261645Z 02007KT 1SM -SN OVC003 02/M01 A3004
 
KESN - Easton/Newnam, Maryland, USA
Distance from station: SSE 48mi, 78km
Updated: Wed, 26-Nov-2014 11:50am EST
Heavy rain, Mist, Mostly cloudy
Heavy rain, Mist, Mostly cloudy
 Wind from N
Wind: N 10 mph , 17 km/h, Gust: 16 mph , 26 km/h
Temperature: 39°F , 4°C
Wind Chill: 32°F , 0°C
Dew Point: 39°F , 4°C
Humidity: 100%
Barometer: 30.01 inHg , 1016.3 hPa
Summary: Heavy rain, Mist
Clouds: Mostly cloudy
Visibility: 2 miles , 3 km
Cloud details: Mostly cloudy 800 ft
2014/11/26 16:50 KESN 261650Z 01009G14KT 2SM +RA BR BKN008 04/04 A3001
KDCA - Washington/Natl, Washington D.c., USA
Distance from station: SW 49mi, 79km
Updated: Wed, 26-Nov-2014 11:52am EST
Light rain, Snow, Mist, Overcast
Light rain, Snow, Mist, Overcast
 Wind from NNE
Wind: NNE 10 mph , 17 km/h
Temperature: 37°F , 3°C
Wind Chill: 30°F , -1°C
Dew Point: 34°F , 1°C
Humidity: 87%
Barometer: 29.98 inHg , 1015.2 hPa
Summary: Light rain, Snow, Mist
Clouds: Overcast
Visibility: 4 miles , 6 km
Cloud details: Overcast 600 ft
2014/11/26 16:52 KDCA 261652Z 02009KT 4SM -RASN BR OVC006 03/01 A2998 RMK AO2 SNB1556 CIG 004V012 SLP151 P0015 T00280006
 
KLNS - Lancaster, Pennsylvania, USA
Distance from station: N 49mi, 79km
Updated: Wed, 26-Nov-2014 11:53am EST
Light snow, Mist, Overcast
Light snow, Mist, Overcast
 Wind from NNE
Wind: NNE 7 mph , 11 km/h
Temperature: 34°F , 1°C
Wind Chill: 28°F , -2°C
Dew Point: 32°F , 0°C
Humidity: 93%
Barometer: 30.04 inHg , 1017.3 hPa
Summary: Light snow, Mist
Clouds: Overcast
Visibility: 3/4 mile , 5 km
Cloud details: Partly cloudy 300 ft
Overcast 1400 ft
2014/11/26 16:53 KLNS 261653Z 02006KT 3/4SM -SN BR SCT003 OVC014 01/00 A3004 RMK AO2 SLP175 P0013 T00060000
KILG - Wilmington, Delaware, USA
Distance from station: ENE 50mi, 81km
Updated: Wed, 26-Nov-2014 11:51am EST
Light snow, Mist, Overcast
Light snow, Mist, Overcast
 Wind from N
Wind: N 10 mph , 17 km/h
Temperature: 34°F , 1°C
Wind Chill: 26°F , -3°C
Dew Point: 32°F , 0°C
Humidity: 93%
Barometer: 30.01 inHg , 1016.3 hPa
Summary: Light snow, Mist
Clouds: Overcast
Visibility: 1 1/4 miles , 2 km
Cloud details: Mostly cloudy 400 ft
Overcast 2000 ft
2014/11/26 16:51 KILG 261651Z 36009KT 1 1/4SM R01/6000VP6000FT -SN BR BKN004 OVC020 01/00 A3001 RMK AO2 RAE22SNB22 PRESFR SLP161 P0015 I1000 T00110000